02NY weather

Hansen Heliport
Durhamville, New York, United States

Public forecast

Using degrees Fahrenheit for public forecast. Weather courtesy of forecast.io.

Closest aviation weather report (METAR) to Hansen Heliport

Closest report is Griffiss International Airport, 12.5 nm (23.1 km) ENE. Retrieved 2019/10/14 18:53 UTC (12 minutes ago):

KRME 141853Z 29011KT 10SM BKN034 BKN100 14/06 A2996 RMK AO2 SLP145 T01440061

Closest aviation forecast (TAF) to Hansen Heliport

Closest forecast is Griffiss International Airport, 12.5 nm (23.1 km) ENE. Retrieved 2019/10/14 18:36 UTC (29 minutes ago):

TAF KRME 141734Z 1418/1518 26006KT P6SM BKN050 FM150000 24004KT P6SM SCT040